createdAt,value
2022-11-30T00:00:14.132Z,0.37
2022-11-30T00:01:14.121Z,0.37
2022-11-30T00:02:14.266Z,0.34
2022-11-30T00:03:14.320Z,0.44
2022-11-30T00:04:14.097Z,0.48
2022-11-30T00:05:14.080Z,0.45
2022-11-30T00:06:14.070Z,0.45
2022-11-30T00:07:14.082Z,0.28
2022-11-30T00:08:14.050Z,0.38
2022-11-30T00:09:14.048Z,0.38
2022-11-30T00:10:14.023Z,0.48
2022-11-30T00:11:14.014Z,0.49
2022-11-30T00:12:13.997Z,0.43
2022-11-30T00:13:13.984Z,0.44
2022-11-30T00:14:13.994Z,0.40
2022-11-30T00:15:14.026Z,0.35
2022-11-30T00:16:14.035Z,0.25
2022-11-30T00:17:13.947Z,0.25
2022-11-30T00:18:13.937Z,0.34
2022-11-30T00:19:13.937Z,0.44
2022-11-30T00:20:13.912Z,0.31
2022-11-30T00:21:13.914Z,0.38
2022-11-30T00:22:13.894Z,0.43
2022-11-30T00:23:13.900Z,0.38
2022-11-30T00:24:13.866Z,0.25
2022-11-30T00:25:13.873Z,0.44
2022-11-30T00:26:13.846Z,0.44
2022-11-30T00:27:13.846Z,0.40
2022-11-30T00:28:13.830Z,0.40
2022-11-30T00:29:13.815Z,0.38
2022-11-30T00:30:13.802Z,0.43
2022-11-30T00:31:14.031Z,0.53
2022-11-30T00:32:13.775Z,0.49
2022-11-30T00:33:13.773Z,0.53
2022-11-30T00:34:21.289Z,0.34
2022-11-30T00:35:21.732Z,0.52
2022-11-30T00:36:21.271Z,0.43
2022-11-30T00:37:21.240Z,0.48
2022-11-30T00:38:13.714Z,0.28
2022-11-30T00:39:21.236Z,0.31
2022-11-30T00:40:22.216Z,0.37
2022-11-30T00:41:21.303Z,0.33
2022-11-30T00:42:21.197Z,0.26
2022-11-30T00:43:21.180Z,0.23
2022-11-30T00:44:21.170Z,0.19
2022-11-30T00:45:13.642Z,0.25
2022-11-30T00:46:13.698Z,0.20
2022-11-30T00:47:13.655Z,0.22
2022-11-30T00:48:13.603Z,0.22
2022-11-30T00:49:13.608Z,0.16
2022-11-30T00:50:21.113Z,0.25
2022-11-30T00:51:21.432Z,0.13
2022-11-30T00:52:13.562Z,0.10
2022-11-30T00:53:13.553Z,0.10
2022-11-30T00:54:13.558Z,0.13
2022-11-30T00:55:13.532Z,0.10
2022-11-30T00:56:13.526Z,0.20
2022-11-30T00:57:13.508Z,0.08
2022-11-30T00:58:13.497Z,0.07
2022-11-30T00:59:13.545Z,0.17
2022-11-30T01:00:13.495Z,0.19
2022-11-30T01:01:13.554Z,0.15
2022-11-30T01:02:13.532Z,0.13
2022-11-30T01:03:13.473Z,0.23
2022-11-30T01:04:13.432Z,0.10
2022-11-30T01:05:13.423Z,0.12
2022-11-30T01:06:13.425Z,0.13
2022-11-30T01:07:13.399Z,0.12
2022-11-30T01:08:13.393Z,0.23
2022-11-30T01:09:13.382Z,0.25
2022-11-30T01:10:13.365Z,0.25
2022-11-30T01:11:13.354Z,0.20
2022-11-30T01:12:13.353Z,0.22
2022-11-30T01:13:13.337Z,0.26
2022-11-30T01:14:13.327Z,0.19
2022-11-30T01:15:13.313Z,0.15
2022-11-30T01:16:13.348Z,0.19
2022-11-30T01:17:13.292Z,0.19
2022-11-30T01:18:13.305Z,0.22
2022-11-30T01:19:13.297Z,0.22
2022-11-30T01:20:13.256Z,0.28
2022-11-30T01:21:13.244Z,0.30
2022-11-30T01:22:13.233Z,0.33
2022-11-30T01:23:13.222Z,0.45
2022-11-30T01:24:13.228Z,0.28
2022-11-30T01:25:13.212Z,0.26
2022-11-30T01:26:13.189Z,0.31
2022-11-30T01:27:13.184Z,0.30
2022-11-30T01:28:13.164Z,0.28
2022-11-30T01:29:13.154Z,0.33
2022-11-30T01:30:13.153Z,0.40
2022-11-30T01:31:13.191Z,0.22
2022-11-30T01:32:13.124Z,0.28
2022-11-30T01:33:13.115Z,0.40
2022-11-30T01:34:13.103Z,0.25
2022-11-30T01:35:13.112Z,0.30
2022-11-30T01:36:13.086Z,0.33
2022-11-30T01:37:13.067Z,0.15
2022-11-30T01:38:13.067Z,0.34
2022-11-30T01:39:13.052Z,0.16
2022-11-30T01:40:13.029Z,0.20
2022-11-30T01:41:13.021Z,0.22
2022-11-30T01:42:13.022Z,0.25
2022-11-30T01:43:12.998Z,0.31
2022-11-30T01:44:18.156Z,0.28
2022-11-30T01:45:13.977Z,0.28
2022-11-30T01:46:13.005Z,0.30
2022-11-30T01:47:12.959Z,0.19
2022-11-30T01:48:12.952Z,0.15
2022-11-30T01:49:12.930Z,0.12
2022-11-30T01:50:12.986Z,0.16
2022-11-30T01:51:12.942Z,0.10
2022-11-30T01:52:12.898Z,0.15
2022-11-30T01:53:12.899Z,0.28
2022-11-30T01:54:12.875Z,0.25
2022-11-30T01:55:12.878Z,0.08
2022-11-30T01:56:12.889Z,0.23
2022-11-30T01:57:12.847Z,0.19
2022-11-30T01:58:12.833Z,0.22
2022-11-30T01:59:12.821Z,0.13
2022-11-30T02:00:12.816Z,0.20
2022-11-30T02:01:12.848Z,0.13
2022-11-30T02:02:12.857Z,0.30
2022-11-30T02:03:12.777Z,0.26
2022-11-30T02:04:12.770Z,0.23
2022-11-30T02:05:12.756Z,0.26
2022-11-30T02:06:12.748Z,0.10
2022-11-30T02:07:12.814Z,0.20
2022-11-30T02:08:12.869Z,0.28
2022-11-30T02:09:12.710Z,0.30
2022-11-30T02:10:12.703Z,0.17
2022-11-30T02:11:12.687Z,0.23
2022-11-30T02:12:12.677Z,0.33
2022-11-30T02:13:12.681Z,0.22
2022-11-30T02:14:12.713Z,0.30
2022-11-30T02:15:12.645Z,0.28
2022-11-30T02:16:12.695Z,0.35
2022-11-30T02:17:12.625Z,0.35
2022-11-30T02:18:12.610Z,0.26
2022-11-30T02:19:12.601Z,0.26
2022-11-30T02:20:12.592Z,0.17
2022-11-30T02:21:12.583Z,0.22
2022-11-30T02:22:12.583Z,0.25
2022-11-30T02:23:12.580Z,0.20
2022-11-30T02:24:12.545Z,0.28
2022-11-30T02:25:12.554Z,0.17
2022-11-30T02:26:12.572Z,0.31
2022-11-30T02:27:12.516Z,0.20
2022-11-30T02:28:12.502Z,0.22
2022-11-30T02:29:12.501Z,0.33
2022-11-30T02:30:12.488Z,0.23
2022-11-30T02:31:12.538Z,0.22
2022-11-30T02:32:12.465Z,0.22
2022-11-30T02:33:12.447Z,0.20
2022-11-30T02:34:12.450Z,0.19
2022-11-30T02:35:12.434Z,0.23
2022-11-30T02:36:12.411Z,0.17
2022-11-30T02:37:12.400Z,0.17
2022-11-30T02:38:12.398Z,0.23
2022-11-30T02:39:12.403Z,0.15
2022-11-30T02:40:12.480Z,0.20
2022-11-30T02:41:12.358Z,0.17
2022-11-30T02:42:12.347Z,0.12
2022-11-30T02:43:12.345Z,0.22
2022-11-30T02:44:12.327Z,0.16
2022-11-30T02:45:12.312Z,0.20
2022-11-30T02:46:12.359Z,0.15
2022-11-30T02:47:12.286Z,0.12
2022-11-30T02:48:12.279Z,0.19
2022-11-30T02:49:12.271Z,0.26
2022-11-30T02:50:12.262Z,0.26
2022-11-30T02:51:12.247Z,0.25
2022-11-30T02:52:12.355Z,0.22
2022-11-30T02:53:12.229Z,0.17
2022-11-30T02:54:12.215Z,0.33
2022-11-30T02:55:12.228Z,0.22
2022-11-30T02:56:12.193Z,0.20
2022-11-30T02:57:12.191Z,0.31
2022-11-30T02:58:12.193Z,0.20
2022-11-30T02:59:12.159Z,0.28
2022-11-30T03:00:12.157Z,0.23
2022-11-30T03:01:12.178Z,0.25
2022-11-30T03:02:12.124Z,0.28
2022-11-30T03:03:12.117Z,0.19
2022-11-30T03:04:12.125Z,0.30
2022-11-30T03:05:12.111Z,0.28
2022-11-30T03:06:12.080Z,0.23
2022-11-30T03:07:12.073Z,0.17
2022-11-30T03:08:12.062Z,0.25
2022-11-30T03:09:12.046Z,0.34
2022-11-30T03:10:12.059Z,0.31
2022-11-30T03:11:12.048Z,0.34
2022-11-30T03:12:12.014Z,0.20
2022-11-30T03:13:12.000Z,0.12
2022-11-30T03:14:11.999Z,0.25
2022-11-30T03:15:11.989Z,0.22
2022-11-30T03:16:12.277Z,0.26
2022-11-30T03:17:11.963Z,0.31
2022-11-30T03:18:11.952Z,0.23
2022-11-30T03:19:11.977Z,0.26
2022-11-30T03:20:11.929Z,0.22
2022-11-30T03:21:11.926Z,0.22
2022-11-30T03:22:11.909Z,0.33
2022-11-30T03:23:11.890Z,0.34
2022-11-30T03:24:11.883Z,0.25
2022-11-30T03:25:11.871Z,0.19
2022-11-30T03:26:11.875Z,0.37
2022-11-30T03:27:11.881Z,0.25
2022-11-30T03:28:11.846Z,0.28
2022-11-30T03:29:11.830Z,0.26
2022-11-30T03:30:11.816Z,0.26
2022-11-30T03:31:11.909Z,0.22
2022-11-30T03:32:11.804Z,0.25
2022-11-30T03:33:11.781Z,0.28
2022-11-30T03:34:11.784Z,0.26
2022-11-30T03:35:11.760Z,0.15
2022-11-30T03:36:11.750Z,0.20
2022-11-30T03:37:11.743Z,0.22
2022-11-30T03:38:11.738Z,0.19
2022-11-30T03:39:11.712Z,0.23
2022-11-30T03:40:11.708Z,0.20
2022-11-30T03:41:11.691Z,0.25
2022-11-30T03:42:11.784Z,0.26
2022-11-30T03:43:11.696Z,0.30
2022-11-30T03:44:11.662Z,0.23
2022-11-30T03:45:11.649Z,0.23
2022-11-30T03:46:11.703Z,0.16
2022-11-30T03:47:11.624Z,0.30
2022-11-30T03:48:11.624Z,0.20
2022-11-30T03:49:11.607Z,0.30
2022-11-30T03:50:11.590Z,0.38
2022-11-30T03:51:11.608Z,0.35
2022-11-30T03:52:11.579Z,0.15
2022-11-30T03:53:11.559Z,0.20
2022-11-30T03:54:11.557Z,0.30
2022-11-30T03:55:11.541Z,0.17
2022-11-30T03:56:11.536Z,0.28
2022-11-30T03:57:11.525Z,0.20
2022-11-30T03:58:11.559Z,0.28
2022-11-30T03:59:11.533Z,0.33
2022-11-30T04:00:11.486Z,0.30
2022-11-30T04:01:11.469Z,0.45
2022-11-30T04:02:11.524Z,0.31
2022-11-30T04:03:11.490Z,0.34
2022-11-30T04:04:11.444Z,0.25
2022-11-30T04:05:11.428Z,0.19
2022-11-30T04:06:11.418Z,0.26
2022-11-30T04:07:11.405Z,0.33
2022-11-30T04:08:11.406Z,0.25
2022-11-30T04:09:11.395Z,0.30
2022-11-30T04:10:11.386Z,0.20
2022-11-30T04:11:11.362Z,0.33
2022-11-30T04:12:11.354Z,0.22
2022-11-30T04:13:11.338Z,0.22
2022-11-30T04:14:11.339Z,0.10
2022-11-30T04:15:11.348Z,-0.01
2022-11-30T04:16:11.404Z,0.17
2022-11-30T04:17:11.295Z,0.16
2022-11-30T04:18:11.286Z,0.15
2022-11-30T04:19:11.273Z,0.16
2022-11-30T04:20:11.262Z,0.13
2022-11-30T04:21:11.249Z,0.23
2022-11-30T04:22:11.310Z,0.20
2022-11-30T04:23:11.232Z,0.10
2022-11-30T04:24:11.217Z,0.15
2022-11-30T04:25:11.205Z,0.17
2022-11-30T04:26:11.207Z,0.12
2022-11-30T04:27:11.197Z,0.15
2022-11-30T04:28:11.197Z,0.10
2022-11-30T04:29:11.178Z,0.19
2022-11-30T04:30:11.149Z,0.20
2022-11-30T04:31:11.237Z,0.15
2022-11-30T04:32:11.142Z,0.15
2022-11-30T04:33:11.119Z,0.43
2022-11-30T04:34:11.121Z,0.26
2022-11-30T04:35:11.103Z,0.19
2022-11-30T04:36:11.087Z,0.25
2022-11-30T04:37:11.073Z,0.25
2022-11-30T04:38:11.080Z,0.17
2022-11-30T04:39:11.057Z,0.01
2022-11-30T04:40:11.044Z,0.16
2022-11-30T04:41:11.142Z,0.10
2022-11-30T04:42:11.023Z,0.07
2022-11-30T04:43:11.008Z,0.13
2022-11-30T04:44:11.001Z,0.19
2022-11-30T04:45:10.991Z,0.28
2022-11-30T04:46:11.056Z,0.10
2022-11-30T04:47:11.007Z,0.12
2022-11-30T04:48:10.959Z,0.13
2022-11-30T04:49:10.951Z,0.25
2022-11-30T04:50:10.938Z,0.22
2022-11-30T04:51:10.924Z,0.17
2022-11-30T04:52:10.921Z,0.25
2022-11-30T04:53:11.009Z,0.25
2022-11-30T04:54:10.897Z,0.17
2022-11-30T04:55:10.880Z,0.13
2022-11-30T04:56:10.874Z,0.17
2022-11-30T04:57:10.859Z,0.23
2022-11-30T04:58:10.863Z,0.34
2022-11-30T04:59:10.943Z,0.15
2022-11-30T05:00:10.824Z,0.16
2022-11-30T05:01:10.824Z,0.16
2022-11-30T05:02:10.806Z,0.10
2022-11-30T05:03:10.819Z,0.13
2022-11-30T05:04:10.823Z,0.17
2022-11-30T05:05:10.788Z,0.07
2022-11-30T05:06:10.778Z,0.16
2022-11-30T05:07:10.755Z,0.23
2022-11-30T05:08:10.741Z,0.22
2022-11-30T05:09:10.736Z,0.19
2022-11-30T05:10:10.772Z,0.19
2022-11-30T05:11:10.713Z,0.25
2022-11-30T05:12:10.713Z,0.17
2022-11-30T05:13:10.691Z,0.19
2022-11-30T05:14:10.680Z,0.26
2022-11-30T05:15:10.663Z,0.17
2022-11-30T05:16:10.761Z,0.19
2022-11-30T05:17:10.647Z,0.31
2022-11-30T05:18:10.648Z,0.22
2022-11-30T05:19:10.652Z,0.34
2022-11-30T05:20:10.612Z,0.22
2022-11-30T05:21:10.614Z,0.13
2022-11-30T05:22:10.590Z,0.23
2022-11-30T05:23:10.575Z,0.20
2022-11-30T05:24:10.582Z,0.17
2022-11-30T05:25:10.581Z,0.30
2022-11-30T05:26:10.545Z,0.19
2022-11-30T05:27:14.439Z,0.15
2022-11-30T05:28:11.548Z,0.17
2022-11-30T05:29:10.514Z,0.22
2022-11-30T05:30:10.510Z,0.04
2022-11-30T05:31:10.537Z,0.08
2022-11-30T05:32:10.486Z,0.07
2022-11-30T05:33:10.471Z,0.02
2022-11-30T05:34:10.462Z,-0.02
2022-11-30T05:35:10.491Z,0.01
2022-11-30T05:36:11.130Z,0.15
2022-11-30T05:37:10.426Z,-0.03
2022-11-30T05:38:10.412Z,0.12
2022-11-30T05:39:10.408Z,0.07
2022-11-30T05:40:10.393Z,0.12
2022-11-30T05:41:10.410Z,0.07
2022-11-30T05:42:10.374Z,0.16
2022-11-30T05:43:10.359Z,0.12
2022-11-30T05:44:10.356Z,0.17
2022-11-30T05:45:10.341Z,0.13
2022-11-30T05:46:10.329Z,0.10
2022-11-30T05:47:10.451Z,0.12
2022-11-30T05:48:10.315Z,0.12
2022-11-30T05:49:10.300Z,0.10
2022-11-30T05:50:10.284Z,0.04
2022-11-30T05:51:10.299Z,0.01
2022-11-30T05:52:10.258Z,0.04
2022-11-30T05:53:10.250Z,-0.05
2022-11-30T05:54:10.248Z,0.12
2022-11-30T05:55:10.232Z,0.15
2022-11-30T05:56:10.219Z,0.20
2022-11-30T05:57:10.203Z,0.12
2022-11-30T05:58:10.192Z,0.16
2022-11-30T05:59:10.288Z,-0.02
2022-11-30T06:00:10.173Z,0.08
2022-11-30T06:01:10.215Z,0.01
2022-11-30T06:02:10.251Z,0.07
2022-11-30T06:03:10.312Z,0.08
2022-11-30T06:04:10.130Z,0.08
2022-11-30T06:05:10.129Z,0.07
2022-11-30T06:06:10.107Z,0.12
2022-11-30T06:07:10.130Z,0.10
2022-11-30T06:08:10.087Z,0.13
2022-11-30T06:09:10.076Z,0.12
2022-11-30T06:10:10.068Z,0.05
2022-11-30T06:11:10.057Z,0.05
2022-11-30T06:12:10.040Z,0.12
2022-11-30T06:13:10.034Z,0.05
2022-11-30T06:14:10.019Z,0.16
2022-11-30T06:15:10.004Z,0.25
2022-11-30T06:16:10.128Z,0.22
2022-11-30T06:17:09.986Z,0.26
2022-11-30T06:18:09.976Z,0.08
2022-11-30T06:19:09.982Z,0.22
2022-11-30T06:20:09.979Z,0.19
2022-11-30T06:21:09.943Z,0.15
2022-11-30T06:22:09.943Z,0.07
2022-11-30T06:23:09.958Z,0.15
2022-11-30T06:24:09.922Z,0.08
2022-11-30T06:25:09.904Z,0.12
2022-11-30T06:26:09.892Z,0.08
2022-11-30T06:27:09.875Z,0.12
2022-11-30T06:28:09.869Z,0.13
2022-11-30T06:29:09.867Z,0.07
2022-11-30T06:30:09.845Z,0.05
2022-11-30T06:31:09.930Z,-0.03
2022-11-30T06:32:09.818Z,0.02
2022-11-30T06:33:09.816Z,0.13
2022-11-30T06:34:09.800Z,0.07
2022-11-30T06:35:09.796Z,0.02
2022-11-30T06:36:09.789Z,-0.01
2022-11-30T06:37:09.772Z,-0.06
2022-11-30T06:38:09.763Z,0.12
2022-11-30T06:39:09.774Z,0.07
2022-11-30T06:40:09.735Z,0.04
2022-11-30T06:41:09.743Z,0.01
2022-11-30T06:42:09.713Z,0.17
2022-11-30T06:43:09.714Z,0.13
2022-11-30T06:44:09.694Z,0.05
2022-11-30T06:45:09.675Z,0.02
2022-11-30T06:46:09.779Z,-0.01
2022-11-30T06:47:09.665Z,0.02
2022-11-30T06:48:09.645Z,0.10
2022-11-30T06:49:09.634Z,0.17
2022-11-30T06:50:09.633Z,0.15
2022-11-30T06:51:09.611Z,0.16
2022-11-30T06:52:09.611Z,0.13
2022-11-30T06:53:09.585Z,0.20
2022-11-30T06:54:09.583Z,0.13
2022-11-30T06:55:09.606Z,0.19
2022-11-30T06:56:10.729Z,0.08
2022-11-30T06:57:09.544Z,0.19
2022-11-30T06:58:09.547Z,0.12
2022-11-30T06:59:09.534Z,0.22
2022-11-30T07:00:09.511Z,0.15
2022-11-30T07:01:09.730Z,0.12
2022-11-30T07:02:13.079Z,0.16
2022-11-30T07:03:10.482Z,0.13
2022-11-30T07:04:09.527Z,0.19
2022-11-30T07:05:09.469Z,0.17
2022-11-30T07:06:09.448Z,0.15
2022-11-30T07:07:09.495Z,0.13
2022-11-30T07:08:09.419Z,0.10
2022-11-30T07:09:09.410Z,0.25
2022-11-30T07:10:09.406Z,0.17
2022-11-30T07:11:09.431Z,0.17
2022-11-30T07:12:09.393Z,0.23
2022-11-30T07:13:09.373Z,0.17
2022-11-30T07:14:09.359Z,0.10
2022-11-30T07:15:09.348Z,0.12
2022-11-30T07:16:09.395Z,0.23
2022-11-30T07:17:09.338Z,0.16
2022-11-30T07:18:09.315Z,0.05
2022-11-30T07:19:09.309Z,0.10
2022-11-30T07:20:09.300Z,0.15
2022-11-30T07:21:09.283Z,0.13
2022-11-30T07:22:09.278Z,0.30
2022-11-30T07:23:09.266Z,0.22
2022-11-30T07:24:09.247Z,0.31
2022-11-30T07:25:09.247Z,0.17
2022-11-30T07:26:16.796Z,0.15
2022-11-30T07:27:09.218Z,0.19
2022-11-30T07:28:17.082Z,0.22
2022-11-30T07:29:16.714Z,0.16
2022-11-30T07:30:09.181Z,0.22
2022-11-30T07:31:14.779Z,0.22
2022-11-30T07:32:10.206Z,0.19
2022-11-30T07:33:09.163Z,0.15
2022-11-30T07:34:09.157Z,0.15
2022-11-30T07:35:16.662Z,0.22
2022-11-30T07:36:09.118Z,0.19
2022-11-30T07:37:09.105Z,0.22
2022-11-30T07:38:10.017Z,0.25
2022-11-30T07:39:09.086Z,0.15
2022-11-30T07:40:09.076Z,0.15
2022-11-30T07:41:09.068Z,0.16
2022-11-30T07:42:09.081Z,0.19
2022-11-30T07:43:09.050Z,0.20
2022-11-30T07:44:09.047Z,0.17
2022-11-30T07:45:09.179Z,0.16
2022-11-30T07:46:09.068Z,0.23
2022-11-30T07:47:09.000Z,0.17
2022-11-30T07:48:08.990Z,0.34
2022-11-30T07:49:08.977Z,0.30
2022-11-30T07:50:08.980Z,0.30
2022-11-30T07:51:08.965Z,0.23
2022-11-30T07:52:08.966Z,0.43
2022-11-30T07:53:08.933Z,0.33
2022-11-30T07:54:08.916Z,0.38
2022-11-30T07:55:08.916Z,0.26
2022-11-30T07:56:08.917Z,0.30
2022-11-30T07:57:08.898Z,0.30
2022-11-30T07:58:12.867Z,0.33
2022-11-30T07:59:09.867Z,0.34
2022-11-30T08:00:08.864Z,0.26
2022-11-30T08:01:08.948Z,0.43
2022-11-30T08:02:08.942Z,0.34
2022-11-30T08:03:08.837Z,0.34
2022-11-30T08:04:08.915Z,0.48
2022-11-30T08:05:08.798Z,0.44
2022-11-30T08:06:08.792Z,0.38
2022-11-30T08:07:08.880Z,0.34
2022-11-30T08:08:08.763Z,0.41
2022-11-30T08:09:08.756Z,0.33
2022-11-30T08:10:08.749Z,0.34
2022-11-30T08:11:08.734Z,0.33
2022-11-30T08:12:08.734Z,0.38
2022-11-30T08:13:08.727Z,0.22
2022-11-30T08:14:08.741Z,0.25
2022-11-30T08:15:19.738Z,0.38
2022-11-30T08:16:09.676Z,0.34
2022-11-30T08:17:08.722Z,0.34
2022-11-30T08:18:08.656Z,0.35
2022-11-30T08:19:08.656Z,0.33
2022-11-30T08:20:08.635Z,0.33
2022-11-30T08:21:08.629Z,0.26
2022-11-30T08:22:08.609Z,0.26
2022-11-30T08:23:08.604Z,0.15
2022-11-30T08:24:08.641Z,0.28
2022-11-30T08:25:08.595Z,0.12
2022-11-30T08:26:08.570Z,0.15
2022-11-30T08:27:08.558Z,0.30
2022-11-30T08:28:08.552Z,0.19
2022-11-30T08:29:08.535Z,0.34
2022-11-30T08:30:08.557Z,0.22
2022-11-30T08:31:08.589Z,0.31
2022-11-30T08:32:08.498Z,0.38
2022-11-30T08:33:08.500Z,0.45
2022-11-30T08:34:08.484Z,0.48
2022-11-30T08:35:08.478Z,0.38
2022-11-30T08:36:08.464Z,0.45
2022-11-30T08:37:08.452Z,0.45
2022-11-30T08:38:08.442Z,0.51
2022-11-30T08:39:08.432Z,0.43
2022-11-30T08:40:08.409Z,0.44
2022-11-30T08:41:08.405Z,0.38
2022-11-30T08:42:08.402Z,0.43
2022-11-30T08:43:08.390Z,0.51
2022-11-30T08:44:08.366Z,0.23
2022-11-30T08:45:08.381Z,0.37
2022-11-30T08:46:16.148Z,0.45
2022-11-30T08:47:09.374Z,0.45
2022-11-30T08:48:08.326Z,0.34
2022-11-30T08:49:24.815Z,0.37
2022-11-30T08:50:09.318Z,0.34
2022-11-30T08:51:08.295Z,0.37
2022-11-30T08:53:09.271Z,0.45
2022-11-30T08:54:08.261Z,0.37
2022-11-30T08:55:08.264Z,0.37
2022-11-30T08:56:08.251Z,0.41
2022-11-30T08:57:08.226Z,0.51
2022-11-30T08:58:08.217Z,0.45
2022-11-30T08:59:08.207Z,0.56
2022-11-30T09:00:08.192Z,0.48
2022-11-30T09:01:08.192Z,0.34
2022-11-30T09:02:08.305Z,0.62
2022-11-30T09:03:08.161Z,0.48
2022-11-30T09:04:08.152Z,0.51
2022-11-30T09:05:08.144Z,0.56
2022-11-30T09:06:08.140Z,0.57
2022-11-30T09:07:08.119Z,0.48
2022-11-30T09:08:08.180Z,0.62
2022-11-30T09:09:08.099Z,0.59
2022-11-30T09:10:08.099Z,0.45
2022-11-30T09:11:08.100Z,0.60
2022-11-30T09:12:08.087Z,0.48
2022-11-30T09:13:08.067Z,0.44
2022-11-30T09:14:08.042Z,0.48
2022-11-30T09:15:08.027Z,0.49
2022-11-30T09:16:08.072Z,0.53
2022-11-30T09:17:08.016Z,0.51
2022-11-30T09:18:08.031Z,0.33
2022-11-30T09:19:07.984Z,0.38
2022-11-30T09:20:07.979Z,0.56
2022-11-30T09:21:07.962Z,0.53
2022-11-30T09:22:07.971Z,0.64
2022-11-30T09:23:07.936Z,0.62
2022-11-30T09:24:07.928Z,0.70
2022-11-30T09:25:07.912Z,0.44
2022-11-30T09:26:07.910Z,0.59
2022-11-30T09:27:07.903Z,0.62
2022-11-30T09:28:12.136Z,0.51
2022-11-30T09:29:07.875Z,0.59
2022-11-30T09:30:07.863Z,0.57
2022-11-30T09:31:07.922Z,0.48
2022-11-30T09:32:07.844Z,0.57
2022-11-30T09:33:07.828Z,0.59
2022-11-30T09:34:07.876Z,0.52
2022-11-30T09:35:12.617Z,0.70
2022-11-30T09:36:08.797Z,0.57
2022-11-30T09:37:07.782Z,0.57
2022-11-30T09:38:07.783Z,0.53
2022-11-30T09:39:07.761Z,0.51
2022-11-30T09:40:07.764Z,0.64
2022-11-30T09:41:07.742Z,0.62
2022-11-30T09:42:07.731Z,0.77
2022-11-30T09:43:07.719Z,0.77
2022-11-30T09:44:07.722Z,0.71
2022-11-30T09:45:07.701Z,0.75
2022-11-30T09:46:07.787Z,0.78
2022-11-30T09:47:07.693Z,0.88
2022-11-30T09:48:07.667Z,0.80
2022-11-30T09:50:26.021Z,0.75
2022-11-30T09:51:25.964Z,0.81
2022-11-30T09:52:25.951Z,0.88
2022-11-30T09:53:29.522Z,0.90
2022-11-30T09:54:25.944Z,0.81
2022-11-30T09:55:25.920Z,0.99
2022-11-30T09:56:25.914Z,0.99
2022-11-30T09:57:25.905Z,0.90
2022-11-30T09:58:25.883Z,0.98
2022-11-30T09:59:25.882Z,0.92
2022-11-30T10:00:25.879Z,0.98
2022-11-30T10:01:29.319Z,1.00
2022-11-30T10:02:27.013Z,0.88
2022-11-30T10:03:25.903Z,0.93
2022-11-30T10:04:25.827Z,0.99
2022-11-30T10:05:25.809Z,0.92
2022-11-30T10:06:25.955Z,1.02
2022-11-30T10:07:25.891Z,0.77
2022-11-30T10:08:25.776Z,0.90
2022-11-30T10:09:25.770Z,0.86
2022-11-30T10:10:33.686Z,0.80
2022-11-30T10:11:26.858Z,0.81
2022-11-30T10:12:25.739Z,0.84
2022-11-30T10:13:25.722Z,0.84
2022-11-30T10:14:25.714Z,0.86
2022-11-30T10:15:25.703Z,0.95
2022-11-30T10:16:25.768Z,0.96
2022-11-30T10:17:25.697Z,0.89
2022-11-30T10:18:25.668Z,0.81
2022-11-30T10:19:25.658Z,0.88
2022-11-30T10:20:25.653Z,0.92
2022-11-30T10:21:25.639Z,0.90
2022-11-30T10:22:25.696Z,1.00
2022-11-30T10:23:25.612Z,0.80
2022-11-30T10:24:25.606Z,0.82
2022-11-30T10:25:25.598Z,0.86
2022-11-30T10:26:25.582Z,0.78
2022-11-30T10:27:25.584Z,0.90
2022-11-30T10:28:46.660Z,0.92
2022-11-30T10:29:26.551Z,0.90
2022-11-30T10:30:25.541Z,1.00
2022-11-30T10:31:25.634Z,0.88
2022-11-30T10:32:25.520Z,1.00
2022-11-30T10:33:25.532Z,0.95
2022-11-30T10:34:25.567Z,0.93
2022-11-30T10:35:25.486Z,1.00
2022-11-30T10:36:25.480Z,0.89
2022-11-30T10:37:25.465Z,1.13
2022-11-30T10:38:25.487Z,1.00
2022-11-30T10:39:25.463Z,1.10
2022-11-30T10:40:25.428Z,1.10
2022-11-30T10:41:25.437Z,1.00
2022-11-30T10:42:25.413Z,1.07
2022-11-30T10:43:25.400Z,1.07
2022-11-30T10:44:25.391Z,1.13
2022-11-30T10:45:25.395Z,1.13
2022-11-30T10:46:25.432Z,1.10
2022-11-30T10:47:25.370Z,1.07
2022-11-30T10:48:25.345Z,1.16
2022-11-30T10:49:25.335Z,1.20
2022-11-30T10:50:25.325Z,1.14
2022-11-30T10:51:25.322Z,1.26
2022-11-30T10:52:25.307Z,1.34
2022-11-30T10:53:25.328Z,1.20
2022-11-30T10:54:25.305Z,1.26
2022-11-30T10:55:25.274Z,1.35
2022-11-30T10:56:25.275Z,1.20
2022-11-30T10:57:25.253Z,1.42
2022-11-30T10:58:25.240Z,1.43
2022-11-30T10:59:25.235Z,1.44
2022-11-30T11:00:25.230Z,1.44
2022-11-30T11:01:25.251Z,1.52
2022-11-30T11:02:25.285Z,1.21
2022-11-30T11:03:25.186Z,1.35
2022-11-30T11:04:25.430Z,1.42
2022-11-30T11:05:25.166Z,1.38
2022-11-30T11:06:25.175Z,1.43
2022-11-30T11:07:25.292Z,1.32
2022-11-30T11:08:25.244Z,1.34
2022-11-30T11:09:25.131Z,1.29
2022-11-30T11:10:25.139Z,1.24
2022-11-30T11:11:25.106Z,1.21
2022-11-30T11:12:25.225Z,1.16
2022-11-30T11:13:25.082Z,1.13
2022-11-30T11:14:25.073Z,1.11
2022-11-30T11:15:25.307Z,0.96
2022-11-30T11:16:25.123Z,0.98
2022-11-30T11:17:25.039Z,1.13
2022-11-30T11:18:25.046Z,1.20
2022-11-30T11:19:25.022Z,1.17
2022-11-30T11:20:25.012Z,1.08
2022-11-30T11:21:25.003Z,1.04
2022-11-30T11:22:24.986Z,0.99
2022-11-30T11:23:24.976Z,1.00
2022-11-30T11:24:25.022Z,0.92
2022-11-30T11:25:24.965Z,1.02
2022-11-30T11:26:24.976Z,0.90
2022-11-30T11:27:24.933Z,0.86
2022-11-30T11:28:24.917Z,1.11
2022-11-30T11:29:24.923Z,1.08
2022-11-30T11:30:24.947Z,1.07
2022-11-30T11:31:24.969Z,1.08
2022-11-30T11:32:24.891Z,1.24
2022-11-30T11:33:24.868Z,1.10
2022-11-30T11:34:24.865Z,1.13
2022-11-30T11:35:24.858Z,1.16
2022-11-30T11:36:24.846Z,1.10
2022-11-30T11:37:24.824Z,1.16
2022-11-30T11:38:24.815Z,1.20
2022-11-30T11:39:24.820Z,1.17
2022-11-30T11:40:24.805Z,1.21
2022-11-30T11:41:24.783Z,1.14
2022-11-30T11:42:24.822Z,1.16
2022-11-30T11:43:24.774Z,1.17
2022-11-30T11:44:24.748Z,1.13
2022-11-30T11:45:24.735Z,1.07
2022-11-30T11:46:24.767Z,1.10
2022-11-30T11:47:24.720Z,0.95
2022-11-30T11:48:28.832Z,0.95
2022-11-30T11:49:24.697Z,0.98
2022-11-30T11:50:57.907Z,1.16
2022-11-30T11:51:25.674Z,1.10
2022-11-30T11:52:24.680Z,1.18
2022-11-30T11:53:24.729Z,1.11
2022-11-30T11:54:24.650Z,0.99
2022-11-30T11:55:24.634Z,1.21
2022-11-30T11:56:24.617Z,1.16
2022-11-30T11:57:24.622Z,1.11
2022-11-30T11:58:24.628Z,1.11
2022-11-30T11:59:29.402Z,1.28
2022-11-30T12:00:25.581Z,1.10
2022-11-30T12:01:39.709Z,1.08
2022-11-30T12:02:25.707Z,0.99
2022-11-30T12:03:24.547Z,1.06
2022-11-30T12:04:24.618Z,1.02
2022-11-30T12:05:24.528Z,0.90
2022-11-30T12:06:24.569Z,0.92
2022-11-30T12:07:24.535Z,0.89
2022-11-30T12:08:24.503Z,1.02
2022-11-30T12:09:24.483Z,0.96
2022-11-30T12:10:54.618Z,0.99
2022-11-30T12:11:25.464Z,1.16
2022-11-30T12:12:24.453Z,0.99
2022-11-30T12:13:24.449Z,1.17
2022-11-30T12:14:24.460Z,1.13
2022-11-30T12:15:24.424Z,0.98
2022-11-30T12:16:24.478Z,1.06
2022-11-30T12:17:24.400Z,1.13
2022-11-30T12:18:24.565Z,1.28
2022-11-30T12:19:24.390Z,1.16
2022-11-30T12:20:24.365Z,1.24
2022-11-30T12:21:24.361Z,1.13
2022-11-30T12:22:24.341Z,1.18
2022-11-30T12:23:24.335Z,0.98
2022-11-30T12:24:24.392Z,1.11
2022-11-30T12:25:24.325Z,0.98
2022-11-30T12:26:24.300Z,1.13
2022-11-30T12:27:24.297Z,0.90
2022-11-30T12:28:24.303Z,1.00
2022-11-30T12:29:24.270Z,1.00
2022-11-30T12:30:24.319Z,1.00
2022-11-30T12:31:24.317Z,1.07
2022-11-30T12:32:24.246Z,1.17
2022-11-30T12:33:25.340Z,0.89
2022-11-30T12:34:24.217Z,0.98
2022-11-30T12:35:24.202Z,0.95
2022-11-30T12:36:24.197Z,0.82
2022-11-30T12:37:24.196Z,0.96
2022-11-30T12:38:24.175Z,0.93
2022-11-30T12:39:24.159Z,0.92
2022-11-30T12:40:24.153Z,1.10
2022-11-30T12:41:24.137Z,1.04
2022-11-30T12:42:24.139Z,0.93
2022-11-30T12:43:24.128Z,0.96
2022-11-30T12:44:24.116Z,0.89
2022-11-30T12:45:24.095Z,0.89
2022-11-30T12:46:24.345Z,0.81
2022-11-30T12:47:24.078Z,1.04
2022-11-30T12:48:24.070Z,0.92
2022-11-30T12:49:24.059Z,0.81
2022-11-30T12:50:24.042Z,0.84
2022-11-30T12:51:29.528Z,0.80
2022-11-30T12:52:25.021Z,0.78
2022-11-30T12:53:24.014Z,0.77
2022-11-30T12:54:24.013Z,0.86
2022-11-30T12:55:23.989Z,0.88
2022-11-30T12:56:23.974Z,0.90
2022-11-30T12:57:23.967Z,0.98
2022-11-30T12:58:23.953Z,0.80
2022-11-30T12:59:23.953Z,0.82
2022-11-30T13:00:23.931Z,0.86
2022-11-30T13:01:23.974Z,0.78
2022-11-30T13:02:23.960Z,0.95
2022-11-30T13:03:23.905Z,0.99
2022-11-30T13:04:23.888Z,0.93
2022-11-30T13:05:23.894Z,0.95
2022-11-30T13:06:23.870Z,0.93
2022-11-30T13:07:23.912Z,0.96
2022-11-30T13:08:23.848Z,0.86
2022-11-30T13:09:23.833Z,0.98
2022-11-30T13:10:23.823Z,1.10
2022-11-30T13:11:23.924Z,1.04
2022-11-30T13:12:23.802Z,1.00
2022-11-30T13:13:23.805Z,1.06
2022-11-30T13:14:23.781Z,1.07
2022-11-30T13:15:23.771Z,0.82
2022-11-30T13:16:23.821Z,1.00
2022-11-30T13:17:23.763Z,0.90
2022-11-30T13:18:23.766Z,0.93
2022-11-30T13:19:23.728Z,0.98
2022-11-30T13:20:23.730Z,1.00